Weather at Black Horse Landing Ultralightport [CLOSED]

Public forecast

Using degrees Fahrenheit for public forecast. Weather courtesy of forecast.io.

Closest aviation weather report (METAR) to Black Horse Landing Ultralightport

Closest report is Rogers Municipal Airport-Carter Field, 20.4 nm (37.7 km) W. Retrieved 2022/06/29 20:58 UTC (8 minutes ago):

KROG 292058Z 09007KT 10SM CLR 31/11 A3020 RMK AO2 SLP214 T03110106 56019

Closest aviation forecast (TAF) to Black Horse Landing Ultralightport

Closest forecast is Rogers Municipal Airport-Carter Field, 20.4 nm (37.7 km) W. Retrieved 2022/06/29 18:28 UTC (3 hours ago):

TAF KROG 291726Z 2918/3018 VRB03KT P6SM SKC FM301600 19008KT P6SM SKC